createdAt,value
2022-10-19T00:00:01.383Z,42.77
2022-10-19T00:02:29.323Z,42.98
2022-10-19T00:04:57.213Z,42.98
2022-10-19T00:07:25.085Z,42.98
2022-10-19T00:09:53.387Z,43.07
2022-10-19T00:12:21.213Z,42.85
2022-10-19T00:14:49.122Z,43.21
2022-10-19T00:17:18.410Z,42.88
2022-10-19T00:19:46.573Z,43.16
2022-10-19T00:22:14.647Z,42.79
2022-10-19T00:24:42.613Z,43.19
2022-10-19T00:27:10.569Z,42.89
2022-10-19T00:29:39.125Z,42.89
2022-10-19T00:32:07.073Z,42.76
2022-10-19T00:34:36.291Z,43.05
2022-10-19T00:37:04.110Z,42.70
2022-10-19T00:39:32.240Z,42.84
2022-10-19T00:42:00.098Z,42.75
2022-10-19T00:44:58.246Z,42.77
2022-10-19T00:47:26.227Z,42.96
2022-10-19T00:49:55.748Z,42.67
2022-10-19T00:52:24.407Z,42.44
2022-10-19T00:54:52.332Z,42.80
2022-10-19T00:57:20.176Z,42.55
2022-10-19T00:59:48.345Z,42.62
2022-10-19T01:02:16.197Z,42.81
2022-10-19T01:04:47.378Z,42.46
2022-10-19T01:07:16.623Z,42.75
2022-10-19T01:09:44.786Z,42.66
2022-10-19T01:12:26.442Z,42.59
2022-10-19T01:15:04.893Z,42.73
2022-10-19T01:17:38.749Z,42.47
2022-10-19T01:20:32.686Z,42.50
2022-10-19T01:23:24.879Z,42.56
2022-10-19T01:25:55.842Z,42.62
2022-10-19T01:28:34.486Z,42.67
2022-10-19T01:31:05.311Z,42.23
2022-10-19T01:33:38.624Z,42.24
2022-10-19T01:36:10.364Z,42.59
2022-10-19T01:38:40.081Z,42.27
2022-10-19T01:41:13.732Z,42.41
2022-10-19T01:43:44.083Z,42.56
2022-10-19T01:46:14.939Z,42.51
2022-10-19T01:48:43.684Z,42.32
2022-10-19T01:51:13.413Z,42.47
2022-10-19T01:53:42.441Z,42.40
2022-10-19T01:56:10.357Z,42.27
2022-10-19T01:58:38.503Z,42.28
2022-10-19T02:01:07.954Z,42.44
2022-10-19T02:03:37.273Z,42.51
2022-10-19T02:06:05.410Z,42.51
2022-10-19T02:08:37.824Z,42.24
2022-10-19T02:11:06.191Z,42.18
2022-10-19T02:13:34.058Z,42.38
2022-10-19T02:16:03.107Z,42.21
2022-10-19T02:18:33.290Z,42.03
2022-10-19T02:21:03.447Z,42.16
2022-10-19T02:23:31.403Z,42.06
2022-10-19T02:25:59.272Z,42.47
2022-10-19T02:28:27.216Z,42.21
2022-10-19T02:30:55.425Z,42.11
2022-10-19T02:33:23.303Z,42.28
2022-10-19T02:35:51.149Z,42.20
2022-10-19T02:38:21.830Z,42.07
2022-10-19T02:40:52.822Z,41.98
2022-10-19T02:43:23.081Z,42.01
2022-10-19T02:45:53.330Z,41.82
2022-10-19T02:48:22.734Z,41.89
2022-10-19T02:50:51.992Z,41.96
2022-10-19T02:53:21.183Z,42.01
2022-10-19T02:55:49.175Z,41.97
2022-10-19T02:58:17.054Z,41.90
2022-10-19T03:00:45.285Z,41.95
2022-10-19T03:03:13.223Z,41.95
2022-10-19T03:05:41.034Z,41.96
2022-10-19T03:08:08.868Z,41.94
2022-10-19T03:10:38.480Z,41.81
2022-10-19T03:13:06.326Z,41.77
2022-10-19T03:15:34.188Z,41.84
2022-10-19T03:18:02.059Z,41.86
2022-10-19T03:20:30.219Z,41.84
2022-10-19T03:22:58.142Z,41.81
2022-10-19T03:25:26.081Z,41.84
2022-10-19T03:27:55.305Z,42.13
2022-10-19T03:30:23.418Z,41.88
2022-10-19T03:32:51.302Z,41.72
2022-10-19T03:35:19.262Z,42.01
2022-10-19T03:37:47.090Z,41.76
2022-10-19T03:40:15.471Z,41.81
2022-10-19T03:42:43.330Z,41.80
2022-10-19T03:45:12.823Z,41.77
2022-10-19T03:47:40.672Z,41.81
2022-10-19T03:50:11.294Z,41.76
2022-10-19T03:52:39.155Z,41.88
2022-10-19T03:55:08.188Z,41.69
2022-10-19T03:57:36.274Z,41.75
2022-10-19T04:00:05.123Z,41.57
2022-10-19T04:02:34.377Z,41.51
2022-10-19T04:05:02.231Z,41.71
2022-10-19T04:07:30.085Z,41.59
2022-10-19T04:09:58.303Z,41.52
2022-10-19T04:12:26.189Z,41.63
2022-10-19T04:14:57.420Z,41.47
2022-10-19T04:17:26.441Z,41.50
2022-10-19T04:19:56.000Z,41.49
2022-10-19T04:22:23.962Z,41.57
2022-10-19T04:24:51.811Z,41.57
2022-10-19T04:27:20.422Z,41.56
2022-10-19T04:29:48.557Z,41.57
2022-10-19T04:32:16.440Z,41.63
2022-10-19T04:34:44.256Z,41.54
2022-10-19T04:37:13.504Z,41.52
2022-10-19T04:39:43.330Z,41.24
2022-10-19T04:42:11.203Z,41.49
2022-10-19T04:44:39.590Z,41.28
2022-10-19T04:47:07.495Z,41.36
2022-10-19T04:49:35.607Z,41.45
2022-10-19T04:52:03.548Z,41.76
2022-10-19T04:54:32.883Z,41.45
2022-10-19T04:57:00.770Z,41.50
2022-10-19T04:59:29.453Z,41.33
2022-10-19T05:01:57.350Z,41.62
2022-10-19T05:04:25.346Z,41.44
2022-10-19T05:06:53.224Z,41.55
2022-10-19T05:09:21.530Z,41.62
2022-10-19T05:11:51.792Z,41.29
2022-10-19T05:14:19.688Z,41.45
2022-10-19T05:16:47.603Z,41.17
2022-10-19T05:19:15.776Z,41.50
2022-10-19T05:21:43.721Z,41.62
2022-10-19T05:24:12.863Z,41.46
2022-10-19T05:26:40.843Z,41.37
2022-10-19T05:29:12.931Z,41.31
2022-10-19T05:31:40.767Z,41.33
2022-10-19T05:36:41.595Z,41.21
2022-10-19T05:39:11.858Z,41.15
2022-10-19T05:41:39.818Z,41.43
2022-10-19T05:44:07.765Z,41.27
2022-10-19T05:46:37.045Z,41.40
2022-10-19T05:49:05.149Z,41.74
2022-10-19T05:51:33.072Z,41.56
2022-10-19T05:54:00.946Z,41.12
2022-10-19T05:56:30.007Z,41.47
2022-10-19T05:58:58.282Z,41.25
2022-10-19T06:01:26.302Z,41.12
2022-10-19T06:03:56.314Z,41.02
2022-10-19T06:06:24.358Z,41.38
2022-10-19T06:08:52.741Z,41.22
2022-10-19T06:11:21.411Z,41.27
2022-10-19T06:13:50.383Z,41.12
2022-10-19T06:16:18.868Z,41.28
2022-10-19T06:18:47.056Z,41.32
2022-10-19T06:21:17.267Z,41.40
2022-10-19T06:23:45.265Z,41.31
2022-10-19T06:26:14.320Z,41.34
2022-10-19T06:28:42.930Z,41.04
2022-10-19T06:31:10.943Z,41.38
2022-10-19T06:33:40.399Z,41.22
2022-10-19T06:36:08.605Z,41.23
2022-10-19T06:38:37.921Z,41.32
2022-10-19T06:41:06.250Z,41.42
2022-10-19T06:43:34.180Z,41.31
2022-10-19T06:46:05.348Z,41.16
2022-10-19T06:48:33.215Z,41.17
2022-10-19T06:51:02.149Z,41.36
2022-10-19T06:53:30.052Z,41.11
2022-10-19T06:56:00.108Z,41.14
2022-10-19T06:58:27.972Z,41.25
2022-10-19T07:00:57.185Z,41.20
2022-10-19T07:03:25.344Z,41.11
2022-10-19T07:05:56.033Z,41.21
2022-10-19T07:08:23.933Z,41.21
2022-10-19T07:10:52.484Z,41.32
2022-10-19T07:13:21.725Z,41.21
2022-10-19T07:15:49.696Z,41.15
2022-10-19T07:18:17.569Z,41.34
2022-10-19T07:20:55.306Z,41.40
2022-10-19T07:23:23.174Z,41.07
2022-10-19T07:25:52.684Z,41.32
2022-10-19T07:28:21.994Z,41.12
2022-10-19T07:30:50.147Z,41.20
2022-10-19T07:35:50.808Z,41.17
2022-10-19T07:38:18.713Z,41.35
2022-10-19T07:40:47.548Z,41.17
2022-10-19T07:43:15.600Z,41.26
2022-10-19T07:45:44.840Z,41.22
2022-10-19T07:48:12.677Z,40.93
2022-10-19T07:50:40.816Z,41.25
2022-10-19T07:53:08.734Z,41.21
2022-10-19T07:55:36.617Z,41.52
2022-10-19T07:58:04.520Z,41.19
2022-10-19T08:00:32.768Z,41.08
2022-10-19T08:03:31.670Z,41.18
2022-10-19T08:05:49.873Z,41.17
2022-10-19T08:08:17.731Z,41.10
2022-10-19T08:10:45.912Z,41.20
2022-10-19T08:13:13.790Z,41.27
2022-10-19T08:15:41.635Z,41.17
2022-10-19T08:18:11.490Z,41.14
2022-10-19T08:20:41.944Z,41.12
2022-10-19T08:23:09.795Z,41.33
2022-10-19T08:25:38.279Z,41.34
2022-10-19T08:28:06.143Z,41.09
2022-10-19T08:30:35.572Z,41.14
2022-10-19T08:33:04.464Z,41.16
2022-10-19T08:35:33.768Z,41.14
2022-10-19T08:38:02.873Z,41.19
2022-10-19T08:40:31.651Z,41.13
2022-10-19T08:43:01.792Z,41.07
2022-10-19T08:45:42.687Z,41.23
2022-10-19T08:48:24.263Z,41.15
2022-10-19T08:50:53.749Z,41.02
2022-10-19T08:53:25.648Z,41.32
2022-10-19T08:56:03.781Z,41.28
2022-10-19T08:58:40.777Z,41.03
2022-10-19T09:01:10.690Z,41.04
2022-10-19T09:03:55.131Z,41.25
2022-10-19T09:06:27.366Z,41.13
2022-10-19T09:08:56.029Z,41.10
2022-10-19T09:11:25.879Z,40.93
2022-10-19T09:14:05.029Z,41.05
2022-10-19T09:16:34.748Z,40.88
2022-10-19T09:19:02.861Z,41.24
2022-10-19T09:21:42.066Z,41.02
2022-10-19T09:24:17.644Z,41.22
2022-10-19T09:26:50.769Z,41.01
2022-10-19T09:29:22.948Z,41.21
2022-10-19T09:31:50.830Z,41.30
2022-10-19T09:34:22.965Z,41.22
2022-10-19T09:36:53.639Z,40.97
2022-10-19T09:39:23.490Z,40.92
2022-10-19T09:41:55.432Z,41.04
2022-10-19T09:44:23.705Z,41.01
2022-10-19T09:46:52.987Z,41.06
2022-10-19T09:49:21.341Z,40.96
2022-10-19T09:51:52.155Z,41.03
2022-10-19T09:54:32.796Z,41.27
2022-10-19T09:57:00.936Z,41.17
2022-10-19T09:59:30.714Z,41.29
2022-10-19T10:02:05.275Z,41.13
2022-10-19T10:04:36.388Z,41.20
2022-10-19T10:07:04.491Z,41.14
2022-10-19T10:09:35.284Z,41.17
2022-10-19T10:12:03.208Z,41.03
2022-10-19T10:14:31.832Z,41.20
2022-10-19T10:17:03.340Z,41.15
2022-10-19T10:19:32.264Z,40.96
2022-10-19T10:22:00.811Z,41.34
2022-10-19T10:24:29.096Z,41.17
2022-10-19T10:26:59.125Z,41.12
2022-10-19T10:29:28.026Z,41.12
2022-10-19T10:31:56.958Z,40.92
2022-10-19T10:34:50.060Z,41.31
2022-10-19T10:37:21.419Z,41.27
2022-10-19T10:39:52.649Z,40.84
2022-10-19T10:42:26.508Z,41.20
2022-10-19T10:44:56.261Z,41.15
2022-10-19T10:47:26.125Z,41.00
2022-10-19T10:49:55.010Z,40.95
2022-10-19T10:52:22.899Z,41.05
2022-10-19T10:55:01.415Z,40.99
2022-10-19T10:57:32.829Z,41.19
2022-10-19T11:00:03.721Z,41.16
2022-10-19T11:02:36.109Z,41.08
2022-10-19T11:05:05.883Z,41.21
2022-10-19T11:07:34.418Z,41.04
2022-10-19T11:10:07.837Z,41.26
2022-10-19T11:12:38.378Z,41.25
2022-10-19T11:15:14.346Z,40.98
2022-10-19T11:17:45.270Z,41.21
2022-10-19T11:20:15.946Z,41.02
2022-10-19T11:22:46.059Z,41.20
2022-10-19T11:25:24.980Z,41.07
2022-10-19T11:27:59.731Z,40.95
2022-10-19T11:30:27.623Z,41.08
2022-10-19T11:33:00.579Z,41.31
2022-10-19T11:35:52.890Z,41.14
2022-10-19T11:38:30.213Z,41.25
2022-10-19T11:41:17.289Z,41.24
2022-10-19T11:43:52.265Z,41.15
2022-10-19T11:46:23.102Z,41.18
2022-10-19T11:49:09.953Z,41.05
2022-10-19T11:51:40.524Z,41.01
2022-10-19T11:54:17.278Z,41.16
2022-10-19T11:57:02.236Z,41.02
2022-10-19T11:59:38.838Z,41.30
2022-10-19T12:02:13.682Z,41.13
2022-10-19T12:04:47.924Z,40.78
2022-10-19T12:07:46.274Z,41.21
2022-10-19T12:10:19.687Z,41.11
2022-10-19T12:12:49.118Z,41.17
2022-10-19T12:15:24.828Z,41.01
2022-10-19T12:17:53.898Z,41.11
2022-10-19T12:20:26.442Z,41.26
2022-10-19T12:22:54.416Z,40.96
2022-10-19T12:25:22.282Z,40.90
2022-10-19T12:27:50.714Z,41.26
2022-10-19T12:30:20.388Z,41.01
2022-10-19T12:33:03.011Z,40.97
2022-10-19T12:35:42.430Z,41.17
2022-10-19T12:38:12.277Z,40.88
2022-10-19T12:40:41.772Z,40.94
2022-10-19T12:43:11.635Z,41.01
2022-10-19T12:45:40.658Z,40.98
2022-10-19T12:48:27.816Z,41.05
2022-10-19T12:51:03.583Z,41.28
2022-10-19T12:53:32.519Z,40.95
2022-10-19T12:56:01.688Z,41.06
2022-10-19T12:58:29.589Z,40.80
2022-10-19T13:01:00.993Z,40.91
2022-10-19T13:03:31.644Z,40.95
2022-10-19T13:05:59.880Z,40.72
2022-10-19T13:08:29.462Z,40.70
2022-10-19T13:11:08.761Z,40.99
2022-10-19T13:14:00.126Z,40.81
2022-10-19T13:17:06.298Z,40.78
2022-10-19T13:19:35.593Z,41.04
2022-10-19T13:22:28.368Z,41.07
2022-10-19T13:25:32.857Z,40.99
2022-10-19T13:28:45.423Z,41.01
2022-10-19T13:31:24.546Z,41.11
2022-10-19T13:33:53.693Z,40.98
2022-10-19T13:36:23.297Z,40.88
2022-10-19T13:39:10.482Z,41.17
2022-10-19T13:41:51.526Z,40.99
2022-10-19T13:44:27.935Z,41.10
2022-10-19T13:47:09.712Z,41.01
2022-10-19T13:49:58.604Z,41.11
2022-10-19T13:52:51.176Z,41.01
2022-10-19T13:55:46.570Z,40.63
2022-10-19T13:58:52.806Z,40.88
2022-10-19T14:01:27.324Z,40.81
2022-10-19T14:04:01.531Z,41.19
2022-10-19T14:06:31.728Z,41.18
2022-10-19T14:09:37.747Z,40.98
2022-10-19T14:12:08.395Z,40.86
2022-10-19T14:19:47.503Z,41.25
2022-10-19T14:22:30.135Z,40.77
2022-10-19T14:25:07.544Z,40.96
2022-10-19T14:27:35.807Z,41.14
2022-10-19T14:30:04.620Z,40.87
2022-10-19T14:32:33.991Z,41.03
2022-10-19T14:37:38.685Z,40.94
2022-10-19T14:40:09.918Z,41.14
2022-10-19T14:42:42.309Z,40.60
2022-10-19T14:45:18.127Z,40.86
2022-10-19T14:47:59.214Z,41.07
2022-10-19T14:50:40.194Z,40.89
2022-10-19T14:53:18.173Z,41.00
2022-10-19T14:55:47.477Z,41.13
2022-10-19T14:58:17.954Z,40.92
2022-10-19T15:00:46.298Z,40.91
2022-10-19T15:03:16.194Z,40.89
2022-10-19T15:05:48.218Z,41.03
2022-10-19T15:08:20.003Z,41.05
2022-10-19T15:10:49.561Z,40.56
2022-10-19T15:13:24.019Z,40.60
2022-10-19T15:15:52.195Z,40.82
2022-10-19T15:18:43.497Z,41.18
2022-10-19T15:21:13.922Z,40.94
2022-10-19T15:23:43.040Z,40.95
2022-10-19T15:26:21.460Z,40.80
2022-10-19T15:28:49.726Z,40.92
2022-10-19T15:31:19.429Z,40.65
2022-10-19T15:33:50.039Z,40.74
2022-10-19T15:36:19.523Z,41.02
2022-10-19T15:38:48.172Z,40.93
2022-10-19T15:41:28.705Z,41.07
2022-10-19T15:43:58.887Z,40.92
2022-10-19T15:46:32.209Z,40.92
2022-10-19T15:49:05.463Z,40.93
2022-10-19T15:51:44.160Z,40.99
2022-10-19T15:54:12.392Z,40.83
2022-10-19T15:56:41.667Z,40.69
2022-10-19T15:59:13.125Z,40.97
2022-10-19T16:01:41.008Z,40.74
2022-10-19T16:04:09.117Z,40.82
2022-10-19T16:06:39.114Z,40.86
2022-10-19T16:09:07.311Z,40.83
2022-10-19T16:11:36.464Z,40.86
2022-10-19T16:14:05.766Z,40.90
2022-10-19T16:16:34.122Z,40.93
2022-10-19T16:19:02.447Z,41.25
2022-10-19T16:21:31.474Z,40.75
2022-10-19T16:23:59.377Z,40.89
2022-10-19T16:26:27.615Z,41.14
2022-10-19T16:28:55.710Z,41.04
2022-10-19T16:31:25.271Z,40.98
2022-10-19T16:33:53.210Z,40.95
2022-10-19T16:36:21.170Z,41.14
2022-10-19T16:38:49.450Z,40.97
2022-10-19T16:41:17.446Z,41.04
2022-10-19T16:43:45.377Z,40.97
2022-10-19T16:46:13.261Z,41.24
2022-10-19T16:48:42.569Z,41.07
2022-10-19T16:51:29.409Z,41.16
2022-10-19T16:53:59.027Z,41.26
2022-10-19T16:56:28.434Z,41.12
2022-10-19T16:58:57.402Z,40.64
2022-10-19T17:01:25.314Z,41.24
2022-10-19T17:03:54.902Z,41.07
2022-10-19T17:06:23.184Z,41.04
2022-10-19T17:11:39.578Z,40.91
2022-10-19T17:14:08.281Z,40.91
2022-10-19T17:16:36.788Z,40.75
2022-10-19T17:19:06.656Z,40.99
2022-10-19T17:21:37.899Z,40.94
2022-10-19T17:24:07.127Z,40.88
2022-10-19T17:26:36.407Z,40.71
2022-10-19T17:29:04.367Z,41.03
2022-10-19T17:31:32.376Z,40.81
2022-10-19T17:34:00.646Z,40.75
2022-10-19T17:36:30.853Z,40.59
2022-10-19T17:39:00.052Z,40.87
2022-10-19T17:41:28.029Z,40.88
2022-10-19T17:43:55.997Z,40.65
2022-10-19T17:46:25.141Z,40.86
2022-10-19T17:48:53.290Z,40.99
2022-10-19T17:51:23.627Z,40.94
2022-10-19T17:53:52.856Z,40.86
2022-10-19T17:56:20.959Z,40.65
2022-10-19T17:58:49.282Z,40.62
2022-10-19T18:01:17.539Z,40.89
2022-10-19T18:03:45.372Z,40.69
2022-10-19T18:06:14.357Z,40.88
2022-10-19T18:08:43.082Z,40.86
2022-10-19T18:11:13.572Z,40.92
2022-10-19T18:13:41.459Z,40.87
2022-10-19T18:16:10.453Z,40.92
2022-10-19T18:18:39.381Z,40.95
2022-10-19T18:21:07.880Z,40.90
2022-10-19T18:23:35.853Z,40.67
2022-10-19T18:26:04.157Z,40.64
2022-10-19T18:28:33.649Z,40.49
2022-10-19T18:31:07.142Z,41.01
2022-10-19T18:33:35.458Z,41.10
2022-10-19T18:36:03.434Z,40.68
2022-10-19T18:38:31.315Z,40.93
2022-10-19T18:41:02.527Z,40.86
2022-10-19T18:43:30.403Z,40.97
2022-10-19T18:46:00.112Z,40.95
2022-10-19T18:48:29.303Z,40.88
2022-10-19T18:50:57.489Z,40.80
2022-10-19T18:53:25.362Z,41.14
2022-10-19T18:55:59.445Z,40.59
2022-10-19T18:58:27.391Z,40.90
2022-10-19T19:01:05.255Z,40.86
2022-10-19T19:03:33.202Z,40.61
2022-10-19T19:06:01.620Z,40.85
2022-10-19T19:08:29.704Z,40.91
2022-10-19T19:10:58.021Z,40.88
2022-10-19T19:13:26.889Z,41.07
2022-10-19T19:15:58.742Z,40.73
2022-10-19T19:18:29.167Z,40.47
2022-10-19T19:20:57.459Z,40.81
2022-10-19T19:23:25.403Z,40.97
2022-10-19T19:25:53.451Z,41.04
2022-10-19T19:28:21.331Z,40.70
2022-10-19T19:30:49.535Z,40.92
2022-10-19T19:33:17.392Z,40.85
2022-10-19T19:35:46.967Z,40.96
2022-10-19T19:38:15.161Z,41.10
2022-10-19T19:40:43.603Z,40.63
2022-10-19T19:43:11.576Z,40.89
2022-10-19T19:45:39.489Z,40.71
2022-10-19T19:48:07.560Z,40.80
2022-10-19T19:50:35.498Z,40.85
2022-10-19T19:53:05.064Z,40.94
2022-10-19T19:55:38.107Z,40.85
2022-10-19T19:58:07.080Z,40.56
2022-10-19T20:00:35.235Z,40.80
2022-10-19T20:03:03.083Z,40.70
2022-10-19T20:05:30.937Z,41.04
2022-10-19T20:07:58.811Z,40.82
2022-10-19T20:10:28.415Z,40.88
2022-10-19T20:12:56.387Z,40.65
2022-10-19T20:15:24.283Z,40.71
2022-10-19T20:17:52.166Z,40.96
2022-10-19T20:20:21.224Z,40.75
2022-10-19T20:22:49.530Z,40.56
2022-10-19T20:25:17.523Z,40.81
2022-10-19T20:27:46.793Z,40.48
2022-10-19T20:30:14.975Z,40.91
2022-10-19T20:32:42.860Z,41.06
2022-10-19T20:35:10.949Z,40.66
2022-10-19T20:37:38.824Z,40.88
2022-10-19T20:40:08.988Z,40.70
2022-10-19T20:42:37.371Z,40.89
2022-10-19T20:45:10.079Z,41.05
2022-10-19T20:47:37.997Z,41.02
2022-10-19T20:50:06.761Z,40.71
2022-10-19T20:52:34.809Z,40.79
2022-10-19T20:55:02.849Z,40.56
2022-10-19T20:57:31.217Z,40.72
2022-10-19T20:59:59.384Z,40.93
2022-10-19T21:02:28.726Z,40.66
2022-10-19T21:04:56.597Z,40.81
2022-10-19T21:07:24.489Z,40.62
2022-10-19T21:09:52.715Z,40.86
2022-10-19T21:12:21.068Z,40.69
2022-10-19T21:14:50.185Z,40.81
2022-10-19T21:17:18.091Z,40.36
2022-10-19T21:19:47.636Z,40.71
2022-10-19T21:22:15.589Z,40.70
2022-10-19T21:24:43.423Z,40.78
2022-10-19T21:27:11.264Z,40.78
2022-10-19T21:29:39.516Z,40.78
2022-10-19T21:32:07.351Z,40.72
2022-10-19T21:34:35.490Z,40.76
2022-10-19T21:37:05.035Z,40.50
2022-10-19T21:39:33.205Z,40.87
2022-10-19T21:42:01.065Z,40.65
2022-10-19T21:44:28.988Z,40.83
2022-10-19T21:46:56.838Z,40.98
2022-10-19T21:49:24.998Z,40.60
2022-10-19T21:51:53.601Z,40.63
2022-10-19T21:54:24.571Z,40.40
2022-10-19T21:56:53.161Z,40.60
2022-10-19T21:59:21.090Z,40.57
2022-10-19T22:01:48.981Z,40.72
2022-10-19T22:04:17.783Z,40.84
2022-10-19T22:06:45.740Z,40.75
2022-10-19T22:09:14.937Z,40.29
2022-10-19T22:11:44.223Z,40.78
2022-10-19T22:14:13.083Z,40.41
2022-10-19T22:16:40.972Z,40.53
2022-10-19T22:19:10.055Z,40.35
2022-10-19T22:24:12.244Z,40.43
2022-10-19T22:26:41.106Z,40.35
2022-10-19T22:29:10.659Z,40.14
2022-10-19T22:31:38.718Z,40.43
2022-10-19T22:34:07.753Z,40.33
2022-10-19T22:36:35.643Z,40.41
2022-10-19T22:39:03.909Z,40.27
2022-10-19T22:41:31.829Z,40.20
2022-10-19T22:43:59.722Z,40.43
2022-10-19T22:46:28.988Z,40.38
2022-10-19T22:48:57.233Z,40.57
2022-10-19T22:51:25.124Z,40.50
2022-10-19T22:53:52.983Z,40.13
2022-10-19T22:56:20.875Z,40.45
2022-10-19T22:58:49.023Z,40.26
2022-10-19T23:01:17.077Z,40.06
2022-10-19T23:03:46.420Z,39.98
2022-10-19T23:06:14.740Z,40.52
2022-10-19T23:08:43.256Z,40.32
2022-10-19T23:11:11.193Z,40.20
2022-10-19T23:13:39.077Z,40.21
2022-10-19T23:16:07.457Z,40.05
2022-10-19T23:18:35.784Z,40.41
2022-10-19T23:21:06.688Z,40.22
2022-10-19T23:23:34.934Z,40.16
2022-10-19T23:26:03.746Z,40.13
2022-10-19T23:28:31.792Z,40.22
2022-10-19T23:31:00.075Z,40.39
2022-10-19T23:33:27.947Z,39.90
2022-10-19T23:35:55.799Z,39.87
2022-10-19T23:38:25.071Z,39.87
2022-10-19T23:40:53.307Z,40.02
2022-10-19T23:43:21.175Z,40.16
2022-10-19T23:45:49.062Z,40.27
2022-10-19T23:48:16.917Z,40.13
2022-10-19T23:50:45.065Z,39.85
2022-10-19T23:53:12.932Z,40.04
2022-10-19T23:55:42.177Z,40.09
2022-10-19T23:58:10.044Z,39.96
